sensor_id;sensor_type;location;lat;lon;timestamp;pressure;altitude;pressure_sealevel;temperature;humidity
4617;BME280;2321;42.704;23.384;2023-04-26T00:00:02;94530.69;;;11.36;100.00
4617;BME280;2321;42.704;23.384;2023-04-26T00:02:34;94520.06;;;11.29;100.00
4617;BME280;2321;42.704;23.384;2023-04-26T00:05:01;94521.56;;;11.25;100.00
4617;BME280;2321;42.704;23.384;2023-04-26T00:07:29;94512.94;;;11.23;100.00
4617;BME280;2321;42.704;23.384;2023-04-26T00:09:56;94503.97;;;11.17;100.00
4617;BME280;2321;42.704;23.384;2023-04-26T00:12:23;94508.91;;;11.14;100.00
4617;BME280;2321;42.704;23.384;2023-04-26T00:14:50;94503.44;;;11.08;100.00
4617;BME280;2321;42.704;23.384;2023-04-26T00:17:17;94499.81;;;11.03;100.00
4617;BME280;2321;42.704;23.384;2023-04-26T00:19:45;94492.00;;;11.01;100.00
4617;BME280;2321;42.704;23.384;2023-04-26T00:22:12;94490.00;;;10.96;100.00
4617;BME280;2321;42.704;23.384;2023-04-26T00:24:39;94487.56;;;10.95;100.00
4617;BME280;2321;42.704;23.384;2023-04-26T00:27:06;94490.69;;;10.92;100.00
4617;BME280;2321;42.704;23.384;2023-04-26T00:29:35;94485.78;;;10.88;100.00
4617;BME280;2321;42.704;23.384;2023-04-26T00:32:01;94481.53;;;10.81;100.00
4617;BME280;2321;42.704;23.384;2023-04-26T00:34:31;94489.91;;;10.84;100.00
4617;BME280;2321;42.704;23.384;2023-04-26T00:37:00;94477.03;;;10.81;100.00
4617;BME280;2321;42.704;23.384;2023-04-26T00:39:27;94476.84;;;10.76;100.00
4617;BME280;2321;42.704;23.384;2023-04-26T00:41:54;94476.66;;;10.71;100.00
4617;BME280;2321;42.704;23.384;2023-04-26T00:44:21;94478.16;;;10.66;100.00
4617;BME280;2321;42.704;23.384;2023-04-26T00:46:48;94475.69;;;10.65;100.00
4617;BME280;2321;42.704;23.384;2023-04-26T00:49:20;94470.59;;;10.63;100.00
4617;BME280;2321;42.704;23.384;2023-04-26T00:51:49;94472.88;;;10.60;100.00
4617;BME280;2321;42.704;23.384;2023-04-26T00:54:19;94474.31;;;10.55;100.00
4617;BME280;2321;42.704;23.384;2023-04-26T00:56:47;94481.72;;;10.53;100.00
4617;BME280;2321;42.704;23.384;2023-04-26T00:59:17;94478.44;;;10.51;100.00
4617;BME280;2321;42.704;23.384;2023-04-26T01:01:44;94480.88;;;10.53;100.00
4617;BME280;2321;42.704;23.384;2023-04-26T01:04:13;94474.34;;;10.49;100.00
4617;BME280;2321;42.704;23.384;2023-04-26T01:06:40;94467.00;;;10.44;100.00
4617;BME280;2321;42.704;23.384;2023-04-26T01:09:07;94477.44;;;10.45;100.00
4617;BME280;2321;42.704;23.384;2023-04-26T01:11:38;94484.22;;;10.41;100.00
4617;BME280;2321;42.704;23.384;2023-04-26T01:14:05;94486.72;;;10.36;100.00
4617;BME280;2321;42.704;23.384;2023-04-26T01:16:33;94484.47;;;10.33;100.00
4617;BME280;2321;42.704;23.384;2023-04-26T01:19:07;94489.59;;;10.28;100.00
4617;BME280;2321;42.704;23.384;2023-04-26T01:21:35;94488.56;;;10.29;100.00
4617;BME280;2321;42.704;23.384;2023-04-26T01:24:04;94484.69;;;10.24;100.00
4617;BME280;2321;42.704;23.384;2023-04-26T01:26:31;94478.16;;;10.27;100.00
4617;BME280;2321;42.704;23.384;2023-04-26T01:28:58;94464.84;;;10.27;100.00
4617;BME280;2321;42.704;23.384;2023-04-26T01:31:26;94460.56;;;10.26;100.00
4617;BME280;2321;42.704;23.384;2023-04-26T01:33:52;94455.44;;;10.24;100.00
4617;BME280;2321;42.704;23.384;2023-04-26T01:36:19;94452.44;;;10.14;100.00
4617;BME280;2321;42.704;23.384;2023-04-26T01:38:46;94468.78;;;10.18;100.00
4617;BME280;2321;42.704;23.384;2023-04-26T01:41:14;94471.25;;;10.12;100.00
4617;BME280;2321;42.704;23.384;2023-04-26T01:43:41;94472.91;;;10.07;100.00
4617;BME280;2321;42.704;23.384;2023-04-26T01:46:08;94470.25;;;10.07;100.00
4617;BME280;2321;42.704;23.384;2023-04-26T01:48:35;94477.06;;;10.02;100.00
4617;BME280;2321;42.704;23.384;2023-04-26T01:51:02;94492.59;;;9.99;100.00
4617;BME280;2321;42.704;23.384;2023-04-26T01:53:29;94494.06;;;9.88;100.00
4617;BME280;2321;42.704;23.384;2023-04-26T01:55:56;94488.31;;;9.91;100.00
4617;BME280;2321;42.704;23.384;2023-04-26T01:58:27;94485.88;;;9.96;100.00
4617;BME280;2321;42.704;23.384;2023-04-26T02:00:55;94482.97;;;9.98;100.00
4617;BME280;2321;42.704;23.384;2023-04-26T02:03:22;94479.31;;;9.99;100.00
4617;BME280;2321;42.704;23.384;2023-04-26T02:05:49;94474.59;;;10.01;100.00
4617;BME280;2321;42.704;23.384;2023-04-26T02:08:16;94481.13;;;10.05;100.00
4617;BME280;2321;42.704;23.384;2023-04-26T02:10:42;94466.19;;;10.04;100.00
4617;BME280;2321;42.704;23.384;2023-04-26T02:13:09;94464.34;;;10.05;100.00
4617;BME280;2321;42.704;23.384;2023-04-26T02:15:37;94458.00;;;10.06;100.00
4617;BME280;2321;42.704;23.384;2023-04-26T02:18:05;94463.91;;;10.08;100.00
4617;BME280;2321;42.704;23.384;2023-04-26T02:20:32;94461.25;;;10.08;100.00
4617;BME280;2321;42.704;23.384;2023-04-26T02:22:58;94462.69;;;10.10;100.00
4617;BME280;2321;42.704;23.384;2023-04-26T02:25:25;94456.56;;;10.03;100.00
4617;BME280;2321;42.704;23.384;2023-04-26T02:27:52;94458.44;;;10.02;100.00
4617;BME280;2321;42.704;23.384;2023-04-26T02:30:19;94454.56;;;9.98;100.00
4617;BME280;2321;42.704;23.384;2023-04-26T02:32:47;94455.97;;;10.01;100.00
4617;BME280;2321;42.704;23.384;2023-04-26T02:35:14;94462.72;;;10.03;100.00
4617;BME280;2321;42.704;23.384;2023-04-26T02:37:41;94459.03;;;10.05;100.00
4617;BME280;2321;42.704;23.384;2023-04-26T02:40:09;94463.13;;;10.00;100.00
4617;BME280;2321;42.704;23.384;2023-04-26T02:42:36;94475.59;;;10.00;100.00
4617;BME280;2321;42.704;23.384;2023-04-26T02:45:04;94465.78;;;10.00;100.00
4617;BME280;2321;42.704;23.384;2023-04-26T02:47:31;94469.69;;;9.98;100.00
4617;BME280;2321;42.704;23.384;2023-04-26T02:49:59;94462.97;;;9.95;100.00
4617;BME280;2321;42.704;23.384;2023-04-26T02:52:26;94461.13;;;9.96;100.00
4617;BME280;2321;42.704;23.384;2023-04-26T02:54:53;94460.69;;;9.99;100.00
4617;BME280;2321;42.704;23.384;2023-04-26T02:57:20;94444.91;;;10.04;100.00
4617;BME280;2321;42.704;23.384;2023-04-26T02:59:47;94439.41;;;9.99;100.00
4617;BME280;2321;42.704;23.384;2023-04-26T03:02:14;94436.97;;;9.97;100.00
4617;BME280;2321;42.704;23.384;2023-04-26T03:04:41;94436.75;;;9.99;100.00
4617;BME280;2321;42.704;23.384;2023-04-26T03:07:09;94445.94;;;10.03;100.00
4617;BME280;2321;42.704;23.384;2023-04-26T03:09:36;94453.31;;;10.01;100.00
4617;BME280;2321;42.704;23.384;2023-04-26T03:12:04;94441.94;;;9.87;100.00
4617;BME280;2321;42.704;23.384;2023-04-26T03:14:32;94445.56;;;9.99;100.00
4617;BME280;2321;42.704;23.384;2023-04-26T03:16:59;94452.06;;;10.03;100.00
4617;BME280;2321;42.704;23.384;2023-04-26T03:19:26;94450.88;;;9.99;100.00
4617;BME280;2321;42.704;23.384;2023-04-26T03:21:53;94452.31;;;9.95;100.00
4617;BME280;2321;42.704;23.384;2023-04-26T03:24:22;94440.88;;;9.95;100.00
4617;BME280;2321;42.704;23.384;2023-04-26T03:26:48;94437.22;;;9.89;100.00
4617;BME280;2321;42.704;23.384;2023-04-26T03:29:16;94434.38;;;9.84;100.00
4617;BME280;2321;42.704;23.384;2023-04-26T03:31:42;94427.22;;;9.84;100.00
4617;BME280;2321;42.704;23.384;2023-04-26T03:34:09;94434.13;;;9.92;100.00
4617;BME280;2321;42.704;23.384;2023-04-26T03:36:36;94440.03;;;9.94;100.00
4617;BME280;2321;42.704;23.384;2023-04-26T03:39:03;94438.19;;;9.95;100.00
4617;BME280;2321;42.704;23.384;2023-04-26T03:41:32;94442.69;;;9.94;100.00
4617;BME280;2321;42.704;23.384;2023-04-26T03:44:01;94439.63;;;9.97;100.00
4617;BME280;2321;42.704;23.384;2023-04-26T03:46:28;94442.69;;;10.01;100.00
4617;BME280;2321;42.704;23.384;2023-04-26T03:48:55;94447.56;;;10.04;100.00
4617;BME280;2321;42.704;23.384;2023-04-26T03:51:21;94450.81;;;10.06;100.00
4617;BME280;2321;42.704;23.384;2023-04-26T03:53:48;94458.19;;;10.11;100.00
4617;BME280;2321;42.704;23.384;2023-04-26T03:56:15;94468.22;;;10.09;100.00
4617;BME280;2321;42.704;23.384;2023-04-26T03:58:43;94465.75;;;10.07;100.00
4617;BME280;2321;42.704;23.384;2023-04-26T04:01:10;94456.53;;;10.10;100.00
4617;BME280;2321;42.704;23.384;2023-04-26T04:03:37;94460.41;;;10.14;100.00
4617;BME280;2321;42.704;23.384;2023-04-26T04:06:04;94456.94;;;10.13;100.00
4617;BME280;2321;42.704;23.384;2023-04-26T04:08:31;94467.78;;;10.12;100.00
4617;BME280;2321;42.704;23.384;2023-04-26T04:10:58;94473.16;;;10.05;100.00
4617;BME280;2321;42.704;23.384;2023-04-26T04:13:25;94467.19;;;10.03;100.00
4617;BME280;2321;42.704;23.384;2023-04-26T04:15:54;94466.44;;;9.96;100.00
4617;BME280;2321;42.704;23.384;2023-04-26T04:18:20;94472.00;;;9.87;100.00
4617;BME280;2321;42.704;23.384;2023-04-26T04:20:47;94478.34;;;9.86;100.00
4617;BME280;2321;42.704;23.384;2023-04-26T04:23:14;94491.22;;;9.83;100.00
4617;BME280;2321;42.704;23.384;2023-04-26T04:25:41;94487.56;;;9.77;100.00
4617;BME280;2321;42.704;23.384;2023-04-26T04:28:10;94486.56;;;9.78;100.00
4617;BME280;2321;42.704;23.384;2023-04-26T04:30:38;94487.97;;;9.80;100.00
4617;BME280;2321;42.704;23.384;2023-04-26T04:33:06;94466.13;;;9.72;100.00
4617;BME280;2321;42.704;23.384;2023-04-26T04:35:33;94486.72;;;9.90;100.00
4617;BME280;2321;42.704;23.384;2023-04-26T04:38:00;94487.31;;;9.92;100.00
4617;BME280;2321;42.704;23.384;2023-04-26T04:40:27;94487.72;;;9.96;100.00
4617;BME280;2321;42.704;23.384;2023-04-26T04:42:54;94499.97;;;9.97;100.00
4617;BME280;2321;42.704;23.384;2023-04-26T04:45:21;94492.22;;;9.95;100.00
4617;BME280;2321;42.704;23.384;2023-04-26T04:47:48;94487.88;;;10.01;100.00
4617;BME280;2321;42.704;23.384;2023-04-26T04:50:16;94495.03;;;10.07;100.00
4617;BME280;2321;42.704;23.384;2023-04-26T04:52:43;94497.22;;;10.17;100.00
4617;BME280;2321;42.704;23.384;2023-04-26T04:55:10;94493.91;;;10.22;100.00
4617;BME280;2321;42.704;23.384;2023-04-26T04:57:37;94485.13;;;10.21;100.00
4617;BME280;2321;42.704;23.384;2023-04-26T05:00:05;94492.63;;;10.38;100.00
4617;BME280;2321;42.704;23.384;2023-04-26T05:02:34;94490.94;;;10.44;100.00
4617;BME280;2321;42.704;23.384;2023-04-26T05:05:01;94488.44;;;10.49;100.00
4617;BME280;2321;42.704;23.384;2023-04-26T05:07:30;94497.25;;;10.50;100.00
4617;BME280;2321;42.704;23.384;2023-04-26T05:09:57;94501.56;;;10.57;100.00
4617;BME280;2321;42.704;23.384;2023-04-26T05:12:24;94497.22;;;10.63;100.00
4617;BME280;2321;42.704;23.384;2023-04-26T05:14:51;94497.38;;;10.68;100.00
4617;BME280;2321;42.704;23.384;2023-04-26T05:17:18;94498.78;;;10.71;100.00
4617;BME280;2321;42.704;23.384;2023-04-26T05:19:45;94501.63;;;10.76;100.00
4617;BME280;2321;42.704;23.384;2023-04-26T05:22:12;94506.16;;;10.76;100.00
4617;BME280;2321;42.704;23.384;2023-04-26T05:24:45;94503.09;;;10.72;100.00
4617;BME280;2321;42.704;23.384;2023-04-26T05:27:12;94515.56;;;10.78;100.00
4617;BME280;2321;42.704;23.384;2023-04-26T05:29:39;94510.00;;;10.80;100.00
4617;BME280;2321;42.704;23.384;2023-04-26T05:32:06;94512.25;;;10.76;100.00
4617;BME280;2321;42.704;23.384;2023-04-26T05:34:33;94523.31;;;10.80;100.00
4617;BME280;2321;42.704;23.384;2023-04-26T05:37:01;94519.34;;;10.89;100.00
4617;BME280;2321;42.704;23.384;2023-04-26T05:39:28;94517.75;;;10.88;100.00
4617;BME280;2321;42.704;23.384;2023-04-26T05:41:57;94513.44;;;10.87;100.00
4617;BME280;2321;42.704;23.384;2023-04-26T05:44:24;94522.56;;;10.98;100.00
4617;BME280;2321;42.704;23.384;2023-04-26T05:46:53;94516.41;;;10.98;100.00
4617;BME280;2321;42.704;23.384;2023-04-26T05:49:20;94521.94;;;11.03;100.00
4617;BME280;2321;42.704;23.384;2023-04-26T05:51:47;94520.44;;;11.07;100.00
4617;BME280;2321;42.704;23.384;2023-04-26T05:54:14;94524.31;;;11.11;100.00
4617;BME280;2321;42.704;23.384;2023-04-26T05:56:41;94527.56;;;11.14;100.00
4617;BME280;2321;42.704;23.384;2023-04-26T05:59:09;94523.88;;;11.15;100.00
4617;BME280;2321;42.704;23.384;2023-04-26T06:01:36;94535.44;;;11.02;100.00
4617;BME280;2321;42.704;23.384;2023-04-26T06:04:03;94526.41;;;11.09;100.00
4617;BME280;2321;42.704;23.384;2023-04-26T06:06:30;94534.97;;;11.11;100.00
4617;BME280;2321;42.704;23.384;2023-04-26T06:08:57;94524.31;;;11.11;100.00
4617;BME280;2321;42.704;23.384;2023-04-26T06:11:24;94528.38;;;11.14;100.00
4617;BME280;2321;42.704;23.384;2023-04-26T06:13:51;94525.72;;;11.14;100.00
4617;BME280;2321;42.704;23.384;2023-04-26T06:16:21;94524.31;;;11.11;100.00
4617;BME280;2321;42.704;23.384;2023-04-26T06:18:48;94529.81;;;11.17;100.00
4617;BME280;2321;42.704;23.384;2023-04-26T06:21:15;94527.91;;;11.24;100.00
4617;BME280;2321;42.704;23.384;2023-04-26T06:23:42;94522.59;;;11.24;100.00
4617;BME280;2321;42.704;23.384;2023-04-26T06:26:08;94520.75;;;11.25;100.00
4617;BME280;2321;42.704;23.384;2023-04-26T06:28:35;94525.13;;;11.38;100.00
4617;BME280;2321;42.704;23.384;2023-04-26T06:31:02;94522.78;;;11.48;100.00
4617;BME280;2321;42.704;23.384;2023-04-26T06:33:31;94515.91;;;11.59;100.00
4617;BME280;2321;42.704;23.384;2023-04-26T06:35:58;94517.41;;;11.74;100.00
4617;BME280;2321;42.704;23.384;2023-04-26T06:38:25;94520.59;;;11.83;100.00
4617;BME280;2321;42.704;23.384;2023-04-26T06:40:51;94516.97;;;11.96;100.00
4617;BME280;2321;42.704;23.384;2023-04-26T06:43:18;94518.88;;;12.07;100.00
4617;BME280;2321;42.704;23.384;2023-04-26T06:45:45;94519.13;;;12.25;100.00
4617;BME280;2321;42.704;23.384;2023-04-26T06:48:12;94515.84;;;12.41;100.00
4617;BME280;2321;42.704;23.384;2023-04-26T06:50:40;94515.66;;;12.55;100.00
4617;BME280;2321;42.704;23.384;2023-04-26T06:53:10;94522.28;;;12.64;100.00
4617;BME280;2321;42.704;23.384;2023-04-26T06:55:37;94518.16;;;12.69;100.00
4617;BME280;2321;42.704;23.384;2023-04-26T06:58:04;94521.47;;;12.64;100.00
4617;BME280;2321;42.704;23.384;2023-04-26T07:00:31;94529.59;;;12.57;100.00
4617;BME280;2321;42.704;23.384;2023-04-26T07:02:58;94527.72;;;12.58;100.00
4617;BME280;2321;42.704;23.384;2023-04-26T07:05:24;94526.44;;;12.60;100.00
4617;BME280;2321;42.704;23.384;2023-04-26T07:07:53;94521.81;;;12.56;100.00
4617;BME280;2321;42.704;23.384;2023-04-26T07:10:20;94528.53;;;12.58;100.00
4617;BME280;2321;42.704;23.384;2023-04-26T07:12:47;94530.56;;;12.63;100.00
4617;BME280;2321;42.704;23.384;2023-04-26T07:15:13;94530.69;;;12.68;100.00
4617;BME280;2321;42.704;23.384;2023-04-26T07:17:40;94523.72;;;12.79;100.00
4617;BME280;2321;42.704;23.384;2023-04-26T07:20:08;94531.91;;;12.84;100.00
4617;BME280;2321;42.704;23.384;2023-04-26T07:22:35;94535.59;;;12.83;100.00
4617;BME280;2321;42.704;23.384;2023-04-26T07:25:04;94529.53;;;12.76;100.00
4617;BME280;2321;42.704;23.384;2023-04-26T07:27:31;94540.63;;;12.61;100.00
4617;BME280;2321;42.704;23.384;2023-04-26T07:29:58;94540.13;;;12.52;100.00
4617;BME280;2321;42.704;23.384;2023-04-26T07:32:25;94538.84;;;12.55;100.00
4617;BME280;2321;42.704;23.384;2023-04-26T07:34:52;94533.75;;;12.53;100.00
4617;BME280;2321;42.704;23.384;2023-04-26T07:37:19;94540.50;;;12.56;100.00
4617;BME280;2321;42.704;23.384;2023-04-26T07:39:46;94550.81;;;12.52;100.00
4617;BME280;2321;42.704;23.384;2023-04-26T07:42:14;94541.25;;;12.44;100.00
4617;BME280;2321;42.704;23.384;2023-04-26T07:44:41;94552.31;;;12.48;100.00
4617;BME280;2321;42.704;23.384;2023-04-26T07:47:11;94557.78;;;12.53;100.00
4617;BME280;2321;42.704;23.384;2023-04-26T07:49:38;94553.22;;;12.41;100.00
4617;BME280;2321;42.704;23.384;2023-04-26T07:52:07;94549.94;;;12.39;100.00
4617;BME280;2321;42.704;23.384;2023-04-26T07:54:34;94549.84;;;12.46;98.44
4617;BME280;2321;42.704;23.384;2023-04-26T07:57:01;94541.75;;;12.53;99.00
4617;BME280;2321;42.704;23.384;2023-04-26T07:59:29;94547.28;;;12.70;96.93
4617;BME280;2321;42.704;23.384;2023-04-26T08:01:56;94556.06;;;12.90;99.41
4617;BME280;2321;42.704;23.384;2023-04-26T08:04:29;94555.16;;;12.96;92.55
4617;BME280;2321;42.704;23.384;2023-04-26T08:06:57;94556.63;;;12.92;90.96
4617;BME280;2321;42.704;23.384;2023-04-26T08:09:26;94555.16;;;12.96;92.07
4617;BME280;2321;42.704;23.384;2023-04-26T08:11:53;94549.00;;;12.95;92.80
4617;BME280;2321;42.704;23.384;2023-04-26T08:14:20;94559.34;;;13.04;92.22
4617;BME280;2321;42.704;23.384;2023-04-26T08:16:48;94554.38;;;13.07;89.90
4617;BME280;2321;42.704;23.384;2023-04-26T08:19:15;94545.88;;;12.99;89.17
4617;BME280;2321;42.704;23.384;2023-04-26T08:21:42;94547.63;;;13.05;91.92
4617;BME280;2321;42.704;23.384;2023-04-26T08:24:09;94551.94;;;13.06;91.18
4617;BME280;2321;42.704;23.384;2023-04-26T08:26:36;94547.06;;;13.15;88.90
4617;BME280;2321;42.704;23.384;2023-04-26T08:29:03;94556.03;;;13.21;87.26
4617;BME280;2321;42.704;23.384;2023-04-26T08:31:29;94550.22;;;13.24;85.96
4617;BME280;2321;42.704;23.384;2023-04-26T08:33:58;94554.28;;;13.26;85.68
4617;BME280;2321;42.704;23.384;2023-04-26T08:36:25;94543.94;;;13.30;87.48
4617;BME280;2321;42.704;23.384;2023-04-26T08:38:52;94554.66;;;13.42;85.23
4617;BME280;2321;42.704;23.384;2023-04-26T08:41:21;94535.84;;;13.37;85.85
4617;BME280;2321;42.704;23.384;2023-04-26T08:43:49;94544.19;;;13.40;86.36
4617;BME280;2321;42.704;23.384;2023-04-26T08:46:18;94539.44;;;13.55;88.94
4617;BME280;2321;42.704;23.384;2023-04-26T08:48:51;94537.94;;;13.71;85.26
4617;BME280;2321;42.704;23.384;2023-04-26T08:51:22;94548.63;;;13.71;77.43
4617;BME280;2321;42.704;23.384;2023-04-26T08:53:50;94545.84;;;13.66;74.62
4617;BME280;2321;42.704;23.384;2023-04-26T08:56:20;94547.13;;;13.63;80.16
4617;BME280;2321;42.704;23.384;2023-04-26T08:58:48;94539.94;;;13.64;83.59
4617;BME280;2321;42.704;23.384;2023-04-26T09:01:17;94543.06;;;13.72;86.34
4617;BME280;2321;42.704;23.384;2023-04-26T09:03:46;94534.94;;;13.79;81.69
4617;BME280;2321;42.704;23.384;2023-04-26T09:06:14;94545.63;;;13.91;84.65
4617;BME280;2321;42.704;23.384;2023-04-26T09:08:43;94551.53;;;14.05;81.15
4617;BME280;2321;42.704;23.384;2023-04-26T09:11:11;94557.59;;;14.01;76.00
4617;BME280;2321;42.704;23.384;2023-04-26T09:13:37;94554.13;;;13.88;76.84
4617;BME280;2321;42.704;23.384;2023-04-26T09:16:05;94558.53;;;13.70;78.10
4617;BME280;2321;42.704;23.384;2023-04-26T09:18:32;94550.28;;;13.60;78.88
4617;BME280;2321;42.704;23.384;2023-04-26T09:21:03;94555.59;;;13.48;79.74
4617;BME280;2321;42.704;23.384;2023-04-26T09:23:32;94541.75;;;13.51;81.49
4617;BME280;2321;42.704;23.384;2023-04-26T09:26:17;94556.81;;;13.64;79.81
4617;BME280;2321;42.704;23.384;2023-04-26T09:28:44;94559.34;;;13.71;76.35
4617;BME280;2321;42.704;23.384;2023-04-26T09:31:34;94552.13;;;13.83;78.58
4617;BME280;2321;42.704;23.384;2023-04-26T09:34:02;94550.84;;;13.98;73.64
4617;BME280;2321;42.704;23.384;2023-04-26T09:36:29;94557.91;;;14.04;75.65
4617;BME280;2321;42.704;23.384;2023-04-26T09:38:56;94551.63;;;14.11;72.41
4617;BME280;2321;42.704;23.384;2023-04-26T09:41:41;94551.50;;;14.18;72.28
4617;BME280;2321;42.704;23.384;2023-04-26T09:44:19;94553.13;;;14.19;70.47
4617;BME280;2321;42.704;23.384;2023-04-26T09:46:57;94551.16;;;14.14;69.35
4617;BME280;2321;42.704;23.384;2023-04-26T09:49:25;94554.66;;;14.14;68.02
4617;BME280;2321;42.704;23.384;2023-04-26T09:52:02;94547.34;;;14.10;67.35
4617;BME280;2321;42.704;23.384;2023-04-26T09:54:40;94543.97;;;14.02;66.37
4617;BME280;2321;42.704;23.384;2023-04-26T09:57:09;94551.31;;;14.07;68.57
4617;BME280;2321;42.704;23.384;2023-04-26T09:59:43;94556.41;;;14.09;68.46
4617;BME280;2321;42.704;23.384;2023-04-26T10:02:16;94554.31;;;13.99;64.67
4617;BME280;2321;42.704;23.384;2023-04-26T10:04:44;94546.06;;;14.00;67.31
4617;BME280;2321;42.704;23.384;2023-04-26T10:07:12;94535.72;;;14.04;66.83
4617;BME280;2321;42.704;23.384;2023-04-26T10:09:40;94544.19;;;14.13;63.65
4617;BME280;2321;42.704;23.384;2023-04-26T10:12:10;94549.63;;;14.18;66.11
4617;BME280;2321;42.704;23.384;2023-04-26T10:14:37;94542.06;;;14.27;60.64
4617;BME280;2321;42.704;23.384;2023-04-26T10:17:04;94551.94;;;14.26;59.23
4617;BME280;2321;42.704;23.384;2023-04-26T10:19:33;94547.84;;;14.36;67.90
4617;BME280;2321;42.704;23.384;2023-04-26T10:22:04;94548.31;;;14.33;60.23
4617;BME280;2321;42.704;23.384;2023-04-26T10:24:31;94548.47;;;14.14;62.78
4617;BME280;2321;42.704;23.384;2023-04-26T10:26:59;94544.78;;;14.03;73.87
4617;BME280;2321;42.704;23.384;2023-04-26T10:36:03;94537.47;;;13.86;57.89
4617;BME280;2321;42.704;23.384;2023-04-26T10:38:36;94530.59;;;13.90;57.73
4617;BME280;2321;42.704;23.384;2023-04-26T10:41:28;94537.13;;;13.94;55.38
4617;BME280;2321;42.704;23.384;2023-04-26T10:43:56;94513.63;;;13.85;54.96
4617;BME280;2321;42.704;23.384;2023-04-26T10:46:38;94533.03;;;14.04;54.05
4617;BME280;2321;42.704;23.384;2023-04-26T10:49:17;94536.50;;;14.04;53.41
4617;BME280;2321;42.704;23.384;2023-04-26T10:52:09;94533.94;;;14.10;53.28
4617;BME280;2321;42.704;23.384;2023-04-26T10:54:53;94518.56;;;14.17;53.16
4617;BME280;2321;42.704;23.384;2023-04-26T10:57:22;94526.56;;;14.29;51.49
4617;BME280;2321;42.704;23.384;2023-04-26T11:00:24;94523.41;;;14.32;52.32
4617;BME280;2321;42.704;23.384;2023-04-26T11:02:53;94522.44;;;14.38;51.29
4617;BME280;2321;42.704;23.384;2023-04-26T11:05:53;94516.75;;;14.47;52.33
4617;BME280;2321;42.704;23.384;2023-04-26T11:08:23;94526.81;;;14.57;50.75
4617;BME280;2321;42.704;23.384;2023-04-26T11:10:57;94533.41;;;14.66;52.24
4617;BME280;2321;42.704;23.384;2023-04-26T11:13:24;94535.00;;;14.79;50.10
4617;BME280;2321;42.704;23.384;2023-04-26T11:15:52;94531.34;;;14.86;49.75
4617;BME280;2321;42.704;23.384;2023-04-26T11:18:19;94526.00;;;14.86;50.01
4617;BME280;2321;42.704;23.384;2023-04-26T11:20:46;94533.66;;;14.94;49.80
4617;BME280;2321;42.704;23.384;2023-04-26T11:23:17;94525.00;;;15.04;50.74
4617;BME280;2321;42.704;23.384;2023-04-26T11:25:44;94529.13;;;15.12;50.03
4617;BME280;2321;42.704;23.384;2023-04-26T11:28:11;94537.59;;;15.03;49.16
4617;BME280;2321;42.704;23.384;2023-04-26T11:30:37;94532.63;;;14.95;49.35
4617;BME280;2321;42.704;23.384;2023-04-26T11:33:04;94531.56;;;14.96;49.48
4617;BME280;2321;42.704;23.384;2023-04-26T11:35:32;94521.84;;;15.07;50.63
4617;BME280;2321;42.704;23.384;2023-04-26T11:38:03;94524.63;;;15.30;49.48
4617;BME280;2321;42.704;23.384;2023-04-26T11:40:32;94527.78;;;15.44;49.46
4617;BME280;2321;42.704;23.384;2023-04-26T11:43:01;94525.81;;;15.56;49.33
4617;BME280;2321;42.704;23.384;2023-04-26T11:45:28;94527.63;;;15.51;48.71
4617;BME280;2321;42.704;23.384;2023-04-26T11:47:55;94520.38;;;15.51;48.91
4617;BME280;2321;42.704;23.384;2023-04-26T11:50:23;94529.69;;;15.49;49.50
4617;BME280;2321;42.704;23.384;2023-04-26T11:52:53;94526.47;;;15.46;49.14
4617;BME280;2321;42.704;23.384;2023-04-26T11:55:23;94520.88;;;15.48;47.96
4617;BME280;2321;42.704;23.384;2023-04-26T11:57:52;94517.94;;;15.50;48.45
4617;BME280;2321;42.704;23.384;2023-04-26T12:00:19;94524.66;;;15.70;47.49
4617;BME280;2321;42.704;23.384;2023-04-26T12:02:47;94526.59;;;15.74;47.82
4617;BME280;2321;42.704;23.384;2023-04-26T12:05:21;94516.03;;;15.67;47.34
4617;BME280;2321;42.704;23.384;2023-04-26T12:07:49;94517.09;;;15.66;47.97
4617;BME280;2321;42.704;23.384;2023-04-26T12:10:19;94523.28;;;15.50;48.15
4617;BME280;2321;42.704;23.384;2023-04-26T12:12:47;94520.78;;;15.43;48.90
4617;BME280;2321;42.704;23.384;2023-04-26T12:15:17;94518.03;;;15.38;48.65
4617;BME280;2321;42.704;23.384;2023-04-26T12:17:51;94516.88;;;15.33;48.83
4617;BME280;2321;42.704;23.384;2023-04-26T12:20:24;94518.75;;;15.16;48.48
4617;BME280;2321;42.704;23.384;2023-04-26T12:23:03;94530.13;;;15.06;48.40
4617;BME280;2321;42.704;23.384;2023-04-26T12:25:31;94522.72;;;14.96;48.40
4617;BME280;2321;42.704;23.384;2023-04-26T12:27:59;94510.63;;;14.93;47.91
4617;BME280;2321;42.704;23.384;2023-04-26T12:30:28;94516.22;;;14.91;48.19
4617;BME280;2321;42.704;23.384;2023-04-26T12:32:55;94511.03;;;15.02;49.36
4617;BME280;2321;42.704;23.384;2023-04-26T12:35:22;94519.97;;;15.25;49.88
4617;BME280;2321;42.704;23.384;2023-04-26T12:37:49;94505.03;;;15.29;48.46
4617;BME280;2321;42.704;23.384;2023-04-26T12:40:18;94516.72;;;15.23;47.29
4617;BME280;2321;42.704;23.384;2023-04-26T12:42:46;94518.75;;;15.16;47.74
4617;BME280;2321;42.704;23.384;2023-04-26T12:45:13;94505.09;;;15.00;48.24
4617;BME280;2321;42.704;23.384;2023-04-26T12:47:42;94517.84;;;14.92;47.88
4617;BME280;2321;42.704;23.384;2023-04-26T12:50:09;94509.59;;;14.82;48.96
4617;BME280;2321;42.704;23.384;2023-04-26T12:52:37;94511.63;;;14.75;49.18
4617;BME280;2321;42.704;23.384;2023-04-26T12:55:05;94512.25;;;14.65;49.34
4617;BME280;2321;42.704;23.384;2023-04-26T12:57:33;94516.91;;;14.57;49.52
4617;BME280;2321;42.704;23.384;2023-04-26T13:00:00;94512.50;;;14.51;49.41
4617;BME280;2321;42.704;23.384;2023-04-26T13:02:26;94506.97;;;14.41;49.61
4617;BME280;2321;42.704;23.384;2023-04-26T13:04:55;94509.41;;;14.42;49.62
4617;BME280;2321;42.704;23.384;2023-04-26T13:07:22;94520.59;;;14.39;49.70
4617;BME280;2321;42.704;23.384;2023-04-26T13:09:48;94519.94;;;14.32;49.76
4617;BME280;2321;42.704;23.384;2023-04-26T13:12:15;94525.75;;;14.29;50.23
4617;BME280;2321;42.704;23.384;2023-04-26T13:14:42;94530.06;;;14.30;50.63
4617;BME280;2321;42.704;23.384;2023-04-26T13:17:10;62246.03;;;21.08;100.00